This is the latest recevied weather packets stored in our database for station/object JH1CWL-13. If no packets are shown the sender has not sent any weather packets the latest 1 day(s).
| Time | Temp. | Humidity | Pressure | Rain* | Wind** | Luminosity | Snow |
|---|---|---|---|---|---|---|---|
| 1778061492 | 17.78° C | 89% | 1015.6 hPa | 0 mm | 0 m/s | - | - |
| 1778060290 | 17.78° C | 88% | 1015.9 hPa | 0 mm | 0 m/s | - | - |
| 1778059090 | 18.33° C | 88% | 1015.8 hPa | 0 mm | 0 m/s | - | - |
| 1778057891 | 18.33° C | 87% | 1015.6 hPa | 0 mm | 0 m/s | - | - |
| 1778056690 | 18.89° C | 86% | 1015.8 hPa | 0 mm | 0 m/s | - | - |
| 1778055492 | 18.89° C | 85% | 1016.2 hPa | 0 mm | 0 m/s | - | - |
| 1778054292 | 18.89° C | 83% | 1015.9 hPa | 0 mm | 0 m/s | - | - |
| 1778053090 | 18.89° C | 82% | 1016.4 hPa | 0 mm | 0.45 m/s, 248° | - | - |
| 1778051891 | 19.44° C | 80% | 1016.1 hPa | 0 mm | 0 m/s | - | - |
| 1778050691 | 19.44° C | 78% | 1015.9 hPa | 0 mm | 0 m/s | - | - |
| 1778049492 | 19.44° C | 75% | 1016.3 hPa | 0 mm | 0 m/s | - | - |
| 1778048291 | 20° C | 74% | 1016 hPa | 0 mm | 0 m/s | - | - |
| 1778047092 | 20° C | 74% | 1016.2 hPa | 0 mm | 0.45 m/s, 249° | - | - |
| 1778045891 | 20° C | 75% | 1016.6 hPa | 0 mm | 0.89 m/s, 249° | - | - |
| 1778044690 | 20.56° C | 73% | 1016.6 hPa | 0 mm | 1.79 m/s, 243° | - | - |
| 1778043490 | 20.56° C | 73% | 1016.7 hPa | 0 mm | 0.89 m/s, 270° | - | - |
| 1778042292 | 21.11° C | 73% | 1016.9 hPa | 0 mm | 1.34 m/s, 247° | - | - |
| 1778041090 | 21.11° C | 72% | 1017 hPa | 0 mm | 1.79 m/s, 248° | - | - |
| 1778039890 | 20.56° C | 74% | 1017.2 hPa | 0 mm | 1.34 m/s, 248° | - | - |
| 1778038691 | 20.56° C | 73% | 1017.5 hPa | 0 mm | 2.24 m/s, 240° | - | - |
| 1778037492 | 21.11° C | 69% | 1017.7 hPa | 0 mm | 0.89 m/s, 266° | - | - |
| 1778036290 | 21.67° C | 65% | 1017.9 hPa | 0 mm | 0.45 m/s, 256° | - | - |
| 1778035092 | 21.11° C | 63% | 1018.2 hPa | 0 mm | 1.79 m/s, 240° | - | - |
| 1778033890 | 21.11° C | 65% | 1018.2 hPa | 0 mm | 0.45 m/s, 247° | - | - |
| 1778032691 | 21.11° C | 64% | 1018.5 hPa | 0 mm | 1.79 m/s, 265° | - | - |
* Rain latest hour (hover to see other rain measurements)
** Current wind speed in m/s (hover to see current wind gust speed)